Main page
METAR-TAF:

METAR-TAF

Airports :

Bushehr, Iran

Bushehr Airport

latitude: 28-59N, longitude: 050-50E, elevation: 19 m

Current weather observation

The report was made 41 minutes ago, at 03:00 UTC
Wind 6 kt from the West
Temperature 27°C
Humidity 54%
Pressure 1010 hPa
Visibility 10 km or more
Scattered clouds at a height of 4000 ft
Broken clouds at a height of 9000 ft

METAR: OIBB 290300Z 27006KT 9999 SCT040 BKN090 27/17 Q1010 A2983

Time: 08:11 (03:41 UTC)


TAF: missing

Weather observations and forecasts of more than 4000 airports (METAR and TAF reports).

The available stations are represented by yellow and red dots on the map.

Hover mouse over dot to see the name of the station.

Then click to see weather observations and forecasts.

To change the map : click on the green buttons with a black cross to zoom in, on the green button with a dash to zoom out, or on the green arrows for adjacent maps.


METAR-TAF: